createdAt,value
2022-11-10T00:01:09.210Z,3.33
2022-11-10T00:03:37.667Z,2.30
2022-11-10T00:06:06.206Z,3.03
2022-11-10T00:08:33.734Z,7.30
2022-11-10T00:11:06.500Z,2.57
2022-11-10T00:13:36.161Z,2.53
2022-11-10T00:16:24.114Z,6.70
2022-11-10T00:18:51.134Z,3.70
2022-11-10T00:21:18.628Z,12.57
2022-11-10T00:23:47.642Z,3.77
2022-11-10T00:26:19.435Z,3.23
2022-11-10T00:28:46.362Z,5.73
2022-11-10T00:31:13.792Z,2.80
2022-11-10T00:33:43.355Z,5.67
2022-11-10T00:36:11.518Z,6.30
2022-11-10T00:38:38.664Z,4.50
2022-11-10T00:41:05.804Z,4.23
2022-11-10T00:43:33.213Z,3.00
2022-11-10T00:46:00.398Z,8.50
2022-11-10T00:48:27.240Z,3.60
2022-11-10T00:50:54.138Z,5.10
2022-11-10T00:53:21.374Z,4.03
2022-11-10T00:55:49.137Z,3.30
2022-11-10T00:58:16.183Z,6.30
2022-11-10T01:00:43.170Z,3.80
2022-11-10T01:03:17.133Z,2.63
2022-11-10T01:05:44.716Z,5.00
2022-11-10T01:08:11.676Z,4.50
2022-11-10T01:10:38.518Z,5.87
2022-11-10T01:13:05.446Z,5.30
2022-11-10T01:15:32.260Z,3.10
2022-11-10T01:17:59.070Z,4.97
2022-11-10T01:20:25.998Z,3.40
2022-11-10T01:22:52.871Z,9.50
2022-11-10T01:25:19.843Z,4.40
2022-11-10T01:27:46.772Z,7.60
2022-11-10T01:30:13.845Z,7.83
2022-11-10T01:32:40.679Z,5.07
2022-11-10T01:35:08.680Z,3.50
2022-11-10T01:37:35.738Z,8.00
2022-11-10T01:40:03.893Z,3.53
2022-11-10T01:42:52.558Z,5.33
2022-11-10T01:45:25.264Z,4.00
2022-11-10T01:47:57.941Z,3.10
2022-11-10T01:50:27.632Z,6.10
2022-11-10T01:52:57.832Z,3.53
2022-11-10T01:55:26.095Z,5.13
2022-11-10T01:57:53.407Z,5.70
2022-11-10T02:00:20.944Z,7.33
2022-11-10T02:02:50.863Z,6.20
2022-11-10T02:05:18.141Z,4.20
2022-11-10T02:07:45.969Z,4.67
2022-11-10T02:10:18.709Z,6.07
2022-11-10T02:12:46.608Z,6.77
2022-11-10T02:15:16.578Z,7.70
2022-11-10T02:17:45.582Z,4.57
2022-11-10T02:20:14.699Z,6.23
2022-11-10T02:22:41.635Z,7.87
2022-11-10T02:25:08.911Z,5.03
2022-11-10T02:27:35.697Z,4.60
2022-11-10T02:30:03.083Z,5.00
2022-11-10T02:32:29.873Z,4.17
2022-11-10T02:34:56.708Z,4.33
2022-11-10T02:37:23.499Z,8.73
2022-11-10T02:39:50.332Z,7.87
2022-11-10T02:42:17.154Z,4.10
2022-11-10T02:44:44.056Z,6.83
2022-11-10T02:47:10.886Z,4.60
2022-11-10T02:49:37.764Z,4.70
2022-11-10T02:52:04.717Z,5.00
2022-11-10T02:54:31.565Z,7.37
2022-11-10T02:56:58.430Z,4.67
2022-11-10T02:59:25.254Z,3.83
2022-11-10T03:01:52.086Z,11.00
2022-11-10T03:04:18.865Z,4.27
2022-11-10T03:06:46.237Z,4.60
2022-11-10T03:09:13.120Z,4.17
2022-11-10T03:11:39.937Z,6.63
2022-11-10T03:14:06.758Z,4.40
2022-11-10T03:16:33.561Z,10.00
2022-11-10T03:19:00.388Z,9.43
2022-11-10T03:21:27.182Z,6.10
2022-11-10T03:23:54.000Z,4.77
2022-11-10T03:26:22.192Z,6.57
2022-11-10T03:28:48.968Z,4.93
2022-11-10T03:31:15.763Z,7.13
2022-11-10T03:33:42.564Z,5.43
2022-11-10T03:36:09.451Z,5.90
2022-11-10T03:38:36.273Z,5.37
2022-11-10T03:41:20.069Z,4.87
2022-11-10T03:43:48.259Z,7.17
2022-11-10T03:46:15.813Z,5.13
2022-11-10T03:48:42.622Z,6.03
2022-11-10T03:51:09.472Z,5.73
2022-11-10T03:53:36.482Z,7.37
2022-11-10T03:56:05.100Z,14.90
2022-11-10T03:58:32.221Z,5.77
2022-11-10T04:00:59.113Z,9.63
2022-11-10T04:03:26.249Z,7.67
2022-11-10T04:06:11.817Z,7.10
2022-11-10T04:08:57.409Z,6.07
2022-11-10T04:11:42.871Z,10.00
2022-11-10T04:14:28.501Z,5.77
2022-11-10T04:16:55.316Z,6.00
2022-11-10T04:19:22.471Z,5.30
2022-11-10T04:21:49.279Z,5.83
2022-11-10T04:24:16.348Z,7.10
2022-11-10T04:26:44.787Z,9.13
2022-11-10T04:29:12.376Z,8.80
2022-11-10T04:31:41.234Z,9.63
2022-11-10T04:34:10.602Z,10.50
2022-11-10T04:36:39.317Z,6.70
2022-11-10T04:39:07.128Z,8.50
2022-11-10T04:41:34.487Z,10.53
2022-11-10T04:44:02.423Z,7.10
2022-11-10T04:46:37.888Z,7.93
2022-11-10T04:49:06.095Z,9.73
2022-11-10T04:51:36.033Z,6.67
2022-11-10T04:54:03.303Z,6.30
2022-11-10T04:56:30.167Z,7.53
2022-11-10T04:58:57.431Z,8.40
2022-11-10T05:01:26.901Z,8.57
2022-11-10T05:03:54.843Z,6.90
2022-11-10T05:06:22.376Z,10.93
2022-11-10T05:08:49.266Z,11.53
2022-11-10T05:11:16.581Z,5.60
2022-11-10T05:13:44.412Z,7.63
2022-11-10T05:16:12.009Z,10.90
2022-11-10T05:18:39.199Z,6.57
2022-11-10T05:21:06.238Z,12.20
2022-11-10T05:23:38.996Z,8.70
2022-11-10T05:26:14.434Z,6.40
2022-11-10T05:28:43.634Z,15.90
2022-11-10T05:31:11.449Z,8.13
2022-11-10T05:33:39.133Z,7.47
2022-11-10T05:36:07.012Z,13.17
2022-11-10T05:38:35.656Z,9.70
2022-11-10T05:41:05.888Z,10.77
2022-11-10T05:43:32.688Z,11.03
2022-11-10T05:45:59.748Z,9.80
2022-11-10T05:48:26.558Z,11.83
2022-11-10T05:50:53.416Z,14.20
2022-11-10T05:53:20.514Z,16.47
2022-11-10T05:55:47.654Z,14.00
2022-11-10T05:58:14.556Z,14.47
2022-11-10T06:00:41.581Z,10.57
2022-11-10T06:03:19.317Z,9.03
2022-11-10T06:05:46.365Z,11.60
2022-11-10T06:08:13.375Z,13.80
2022-11-10T06:10:40.731Z,11.33
2022-11-10T06:13:07.672Z,11.60
2022-11-10T06:15:34.709Z,14.70
2022-11-10T06:18:01.554Z,14.53
2022-11-10T06:20:29.054Z,14.43
2022-11-10T06:23:00.079Z,11.93
2022-11-10T06:25:28.393Z,15.60
2022-11-10T06:27:55.608Z,14.87
2022-11-10T06:30:22.617Z,13.67
2022-11-10T06:32:49.875Z,17.37
2022-11-10T06:35:18.005Z,14.13
2022-11-10T06:37:44.833Z,14.67
2022-11-10T06:40:14.044Z,13.03
2022-11-10T06:42:41.028Z,10.93
2022-11-10T06:45:08.301Z,10.73
2022-11-10T06:47:35.168Z,14.50
2022-11-10T06:50:02.006Z,12.23
2022-11-10T06:52:28.930Z,15.53
2022-11-10T06:54:55.840Z,14.33
2022-11-10T06:57:22.794Z,13.70
2022-11-10T06:59:49.624Z,15.67
2022-11-10T07:02:25.835Z,14.03
2022-11-10T07:04:52.653Z,13.70
2022-11-10T07:07:19.477Z,13.10
2022-11-10T07:09:46.402Z,11.77
2022-11-10T07:12:13.234Z,18.53
2022-11-10T07:14:40.096Z,16.23
2022-11-10T07:17:06.988Z,13.77
2022-11-10T07:19:33.848Z,14.33
2022-11-10T07:22:00.681Z,19.27
2022-11-10T07:24:30.341Z,13.07
2022-11-10T07:27:00.557Z,17.43
2022-11-10T07:29:27.413Z,13.20
2022-11-10T07:31:54.296Z,14.10
2022-11-10T07:34:21.244Z,13.60
2022-11-10T07:36:48.305Z,14.27
2022-11-10T07:39:15.237Z,16.50
2022-11-10T07:41:42.060Z,16.70
2022-11-10T07:44:08.943Z,17.10
2022-11-10T07:46:35.814Z,11.97
2022-11-10T07:49:02.683Z,13.77
2022-11-10T07:51:30.867Z,16.87
2022-11-10T07:53:57.718Z,12.00
2022-11-10T07:56:24.677Z,14.23
2022-11-10T07:58:51.510Z,11.10
2022-11-10T08:01:18.394Z,11.90
2022-11-10T08:03:45.285Z,12.93
2022-11-10T08:06:12.122Z,11.60
2022-11-10T08:08:39.016Z,10.97
2022-11-10T08:11:06.308Z,14.80
2022-11-10T08:13:33.245Z,14.10
2022-11-10T08:16:00.191Z,15.57
2022-11-10T08:18:32.330Z,11.37
2022-11-10T08:21:03.110Z,9.33
2022-11-10T08:23:30.023Z,6.97
2022-11-10T08:26:01.158Z,8.40
2022-11-10T08:28:28.459Z,5.70
2022-11-10T08:30:55.702Z,16.20
2022-11-10T08:33:22.930Z,9.57
2022-11-10T08:35:51.928Z,4.90
2022-11-10T08:38:21.177Z,8.87
2022-11-10T08:40:48.191Z,6.30
2022-11-10T08:43:16.379Z,7.90
2022-11-10T08:45:44.847Z,5.33
2022-11-10T08:48:18.613Z,8.97
2022-11-10T08:50:47.038Z,7.23
2022-11-10T08:53:20.528Z,8.73
2022-11-10T08:55:48.318Z,4.60
2022-11-10T08:58:17.647Z,5.60
2022-11-10T09:00:45.051Z,5.17
2022-11-10T09:03:17.194Z,4.63
2022-11-10T09:05:44.474Z,11.17
2022-11-10T09:08:11.969Z,4.53
2022-11-10T09:10:41.910Z,3.77
2022-11-10T09:13:10.334Z,3.90
2022-11-10T09:15:38.087Z,4.27
2022-11-10T09:18:06.424Z,7.03
2022-11-10T09:20:36.108Z,9.07
2022-11-10T09:23:17.361Z,4.43
2022-11-10T09:25:49.769Z,4.23
2022-11-10T09:28:17.382Z,3.23
2022-11-10T09:30:46.814Z,5.20
2022-11-10T09:33:13.929Z,3.87
2022-11-10T09:35:41.105Z,6.67
2022-11-10T09:38:08.174Z,10.70
2022-11-10T09:41:01.036Z,3.73
2022-11-10T09:43:48.172Z,7.33
2022-11-10T09:46:24.547Z,2.47
2022-11-10T09:48:56.271Z,11.47
2022-11-10T09:51:26.671Z,10.10
2022-11-10T09:53:58.660Z,3.30
2022-11-10T09:56:34.084Z,5.27
2022-11-10T09:59:03.217Z,3.37
2022-11-10T10:02:09.993Z,4.57
2022-11-10T10:05:10.435Z,6.20
2022-11-10T10:07:49.167Z,5.80
2022-11-10T10:10:26.037Z,3.90
2022-11-10T10:13:03.369Z,6.33
2022-11-10T10:15:39.252Z,5.43
2022-11-10T10:18:34.036Z,6.93
2022-11-10T10:21:19.429Z,6.53
2022-11-10T10:24:19.775Z,6.00
2022-11-10T10:26:53.539Z,3.60
2022-11-10T10:29:24.116Z,7.40
2022-11-10T10:31:52.962Z,3.13
2022-11-10T10:34:29.020Z,5.40
2022-11-10T10:36:56.600Z,5.37
2022-11-10T10:39:38.384Z,5.73
2022-11-10T10:42:15.563Z,4.60
2022-11-10T10:45:17.492Z,3.03
2022-11-10T10:47:46.699Z,2.47
2022-11-10T10:50:22.463Z,6.77
2022-11-10T10:53:13.098Z,8.70
2022-11-10T10:55:52.813Z,5.87
2022-11-10T10:58:33.849Z,9.13
2022-11-10T11:01:19.098Z,9.60
2022-11-10T11:03:48.749Z,4.17
2022-11-10T11:06:18.331Z,4.10
2022-11-10T11:09:16.065Z,5.30
2022-11-10T11:11:45.707Z,7.50
2022-11-10T11:14:23.459Z,2.77
2022-11-10T11:16:53.304Z,7.00
2022-11-10T11:19:23.804Z,2.50
2022-11-10T11:22:16.578Z,7.10
2022-11-10T11:24:55.695Z,2.80
2022-11-10T11:27:23.151Z,3.03
2022-11-10T11:30:14.196Z,3.73
2022-11-10T11:32:59.060Z,2.83
2022-11-10T11:35:44.359Z,2.40
2022-11-10T11:38:13.169Z,4.00
2022-11-10T11:40:59.163Z,7.03
2022-11-10T11:43:47.678Z,7.60
2022-11-10T11:46:26.485Z,3.07
2022-11-10T11:49:16.272Z,3.80
2022-11-10T11:51:50.854Z,8.83
2022-11-10T11:54:35.811Z,2.70
2022-11-10T11:57:39.679Z,6.50
2022-11-10T12:00:18.471Z,5.83
2022-11-10T12:02:58.597Z,3.93
2022-11-10T12:05:44.040Z,3.30
2022-11-10T12:08:38.396Z,3.53
2022-11-10T12:11:25.520Z,8.13
2022-11-10T12:14:13.593Z,9.07
2022-11-10T12:16:47.386Z,2.47
2022-11-10T12:19:35.224Z,2.77
2022-11-10T12:22:07.032Z,3.73
2022-11-10T12:24:46.694Z,3.63
2022-11-10T12:27:24.426Z,3.23
2022-11-10T12:29:58.299Z,4.10
2022-11-10T12:32:25.117Z,6.33
2022-11-10T12:35:03.013Z,4.53
2022-11-10T12:37:57.927Z,10.67
2022-11-10T12:40:42.321Z,5.90
2022-11-10T12:43:18.705Z,6.10
2022-11-10T12:45:57.156Z,6.70
2022-11-10T12:48:25.732Z,2.40
2022-11-10T12:50:58.733Z,9.67
2022-11-10T12:53:31.809Z,8.20
2022-11-10T12:56:03.843Z,7.53
2022-11-10T12:58:30.953Z,2.70
2022-11-10T13:01:07.405Z,4.07
2022-11-10T13:03:37.271Z,2.60
2022-11-10T13:06:26.114Z,3.87
2022-11-10T13:08:53.373Z,12.50
2022-11-10T13:11:37.274Z,4.47
2022-11-10T13:14:19.364Z,6.60
2022-11-10T13:16:49.652Z,5.40
2022-11-10T13:19:28.578Z,12.43
2022-11-10T13:22:01.591Z,9.33
2022-11-10T13:24:33.569Z,7.23
2022-11-10T13:27:13.064Z,9.07
2022-11-10T13:29:42.868Z,4.10
2022-11-10T13:32:15.870Z,7.13
2022-11-10T13:34:44.584Z,3.70
2022-11-10T13:37:29.754Z,5.67
2022-11-10T13:40:18.455Z,5.93
2022-11-10T13:43:14.256Z,4.87
2022-11-10T13:45:43.468Z,4.40
2022-11-10T13:48:13.059Z,7.87
2022-11-10T13:50:57.937Z,5.27
2022-11-10T13:53:40.142Z,9.53
2022-11-10T13:56:45.004Z,5.73
2022-11-10T13:59:33.383Z,2.50
2022-11-10T14:02:34.272Z,11.13
2022-11-10T14:05:02.288Z,6.83
2022-11-10T14:07:38.518Z,7.20
2022-11-10T14:10:13.022Z,6.93
2022-11-10T14:12:46.307Z,3.17
2022-11-10T14:15:40.658Z,3.70
2022-11-10T14:18:25.108Z,3.63
2022-11-10T14:20:58.836Z,5.83
2022-11-10T14:23:46.222Z,4.77
2022-11-10T14:26:37.981Z,9.13
2022-11-10T14:29:28.238Z,4.20
2022-11-10T14:31:58.070Z,5.20
2022-11-10T14:34:25.643Z,4.50
2022-11-10T14:36:55.173Z,4.20
2022-11-10T14:39:34.115Z,4.00
2022-11-10T14:42:03.675Z,5.20
2022-11-10T14:44:32.449Z,2.47
2022-11-10T14:47:24.028Z,7.70
2022-11-10T14:50:16.392Z,2.70
2022-11-10T14:52:46.968Z,3.23
2022-11-10T14:55:36.723Z,4.20
2022-11-10T14:58:03.822Z,3.40
2022-11-10T15:00:36.037Z,5.53
2022-11-10T15:03:04.780Z,4.23
2022-11-10T15:05:32.621Z,6.23
2022-11-10T15:08:00.795Z,5.07
2022-11-10T15:10:49.347Z,4.70
2022-11-10T15:13:38.030Z,5.50
2022-11-10T15:16:30.243Z,3.57
2022-11-10T15:19:35.679Z,7.27
2022-11-10T15:22:17.720Z,4.97
2022-11-10T15:24:46.033Z,7.80
2022-11-10T15:27:24.112Z,5.90
2022-11-10T15:29:51.678Z,7.00
2022-11-10T15:32:21.542Z,3.37
2022-11-10T15:34:50.266Z,6.50
2022-11-10T15:37:26.133Z,7.17
2022-11-10T15:40:27.970Z,3.23
2022-11-10T15:43:13.265Z,6.90
2022-11-10T15:45:41.337Z,5.87
2022-11-10T15:48:15.987Z,9.30
2022-11-10T15:50:46.021Z,6.43
2022-11-10T15:53:18.626Z,5.90
2022-11-10T15:55:45.770Z,8.13
2022-11-10T15:58:21.876Z,7.67
2022-11-10T16:00:49.932Z,5.27
2022-11-10T16:03:21.672Z,8.93
2022-11-10T16:05:48.944Z,4.40
2022-11-10T16:08:21.906Z,12.20
2022-11-10T16:10:56.522Z,14.27
2022-11-10T16:13:28.704Z,10.87
2022-11-10T16:15:56.179Z,3.77
2022-11-10T16:18:25.762Z,6.50
2022-11-10T16:20:53.120Z,11.83
2022-11-10T16:23:20.459Z,7.47
2022-11-10T16:25:50.421Z,8.10
2022-11-10T16:28:24.071Z,14.10
2022-11-10T16:30:52.321Z,13.67
2022-11-10T16:33:21.862Z,10.20
2022-11-10T16:35:51.503Z,10.27
2022-11-10T16:38:18.459Z,8.90
2022-11-10T16:40:53.579Z,7.03
2022-11-10T16:43:21.416Z,11.43
2022-11-10T16:45:50.091Z,10.63
2022-11-10T16:48:20.807Z,13.63
2022-11-10T16:50:52.760Z,7.40
2022-11-10T16:53:25.192Z,9.53
2022-11-10T16:55:52.298Z,6.03
2022-11-10T16:58:19.351Z,6.27
2022-11-10T17:00:48.162Z,16.73
2022-11-10T17:03:27.072Z,10.00
2022-11-10T17:05:54.396Z,7.77
2022-11-10T17:08:30.776Z,18.40
2022-11-10T17:10:57.688Z,6.87
2022-11-10T17:13:25.126Z,7.63
2022-11-10T17:16:20.894Z,8.63
2022-11-10T17:18:48.142Z,7.87
2022-11-10T17:21:15.244Z,6.03
2022-11-10T17:23:42.589Z,9.13
2022-11-10T17:26:12.422Z,11.00
2022-11-10T17:28:39.248Z,15.07
2022-11-10T17:31:06.122Z,12.47
2022-11-10T17:33:33.115Z,10.63
2022-11-10T17:36:02.132Z,9.60
2022-11-10T17:38:31.095Z,12.43
2022-11-10T17:40:58.358Z,11.23
2022-11-10T17:43:25.839Z,15.20
2022-11-10T17:45:52.920Z,8.80
2022-11-10T17:48:19.751Z,28.57
2022-11-10T17:50:47.088Z,29.50
2022-11-10T17:53:25.802Z,17.83
2022-11-10T17:55:53.006Z,16.70
2022-11-10T17:58:20.269Z,20.37
2022-11-10T18:00:47.573Z,20.23
2022-11-10T18:03:20.406Z,18.17
2022-11-10T18:05:47.572Z,17.63
2022-11-10T18:08:16.160Z,14.87
2022-11-10T18:10:46.444Z,17.80
2022-11-10T18:13:13.304Z,10.73
2022-11-10T18:15:44.539Z,13.23
2022-11-10T18:18:16.380Z,60.10
2022-11-10T18:20:44.516Z,15.30
2022-11-10T18:23:12.721Z,10.40
2022-11-10T18:25:40.758Z,7.97
2022-11-10T18:28:08.266Z,14.43
2022-11-10T18:30:35.587Z,18.30
2022-11-10T18:33:03.600Z,26.27
2022-11-10T18:35:30.842Z,28.30
2022-11-10T18:38:00.471Z,19.20
2022-11-10T18:40:27.767Z,30.10
2022-11-10T18:43:01.852Z,23.17
2022-11-10T18:45:32.962Z,24.90
2022-11-10T18:48:03.982Z,22.43
2022-11-10T18:50:31.276Z,25.10
2022-11-10T18:52:58.421Z,29.03
2022-11-10T18:55:26.335Z,23.67
2022-11-10T18:57:53.200Z,23.37
2022-11-10T19:00:20.525Z,22.67
2022-11-10T19:02:47.744Z,21.27
2022-11-10T19:05:14.630Z,19.30
2022-11-10T19:07:42.190Z,20.80
2022-11-10T19:10:09.124Z,18.33
2022-11-10T19:12:36.007Z,14.20
2022-11-10T19:15:02.869Z,17.37
2022-11-10T19:17:29.703Z,19.73
2022-11-10T19:19:57.014Z,15.33
2022-11-10T19:22:24.277Z,19.37
2022-11-10T19:25:07.472Z,16.53
2022-11-10T19:27:34.987Z,12.30
2022-11-10T19:30:01.875Z,18.17
2022-11-10T19:32:29.718Z,10.30
2022-11-10T19:34:56.595Z,12.00
2022-11-10T19:37:23.435Z,10.40
2022-11-10T19:39:50.279Z,18.70
2022-11-10T19:42:17.186Z,13.60
2022-11-10T19:44:44.006Z,15.70
2022-11-10T19:47:10.826Z,20.03
2022-11-10T19:49:38.768Z,17.43
2022-11-10T19:52:05.730Z,17.80
2022-11-10T19:54:32.524Z,16.30
2022-11-10T19:56:59.503Z,11.87
2022-11-10T19:59:26.311Z,16.97
2022-11-10T20:01:53.968Z,14.17
2022-11-10T20:04:20.901Z,19.27
2022-11-10T20:06:47.915Z,14.60
2022-11-10T20:09:14.792Z,13.93
2022-11-10T20:11:41.701Z,16.83
2022-11-10T20:14:08.503Z,23.33
2022-11-10T20:16:35.326Z,20.87
2022-11-10T20:19:02.250Z,18.60
2022-11-10T20:21:29.167Z,22.93
2022-11-10T20:23:56.898Z,20.27
2022-11-10T20:26:24.652Z,23.70
2022-11-10T20:28:51.568Z,18.40
2022-11-10T20:31:24.433Z,15.37
2022-11-10T20:33:53.031Z,22.13
2022-11-10T20:36:26.294Z,19.43
2022-11-10T20:38:56.838Z,21.30
2022-11-10T20:41:26.568Z,20.23
2022-11-10T20:43:53.485Z,20.70
2022-11-10T20:46:48.200Z,20.30
2022-11-10T20:49:08.593Z,20.93
2022-11-10T20:51:35.494Z,19.20
2022-11-10T20:54:02.641Z,17.40
2022-11-10T20:56:30.275Z,17.30
2022-11-10T20:58:58.216Z,14.93
2022-11-10T21:01:25.677Z,15.73
2022-11-10T21:03:52.808Z,23.20
2022-11-10T21:06:19.841Z,19.70
2022-11-10T21:08:46.704Z,12.17
2022-11-10T21:11:33.732Z,18.93
2022-11-10T21:14:01.588Z,15.90
2022-11-10T21:16:28.773Z,14.10
2022-11-10T21:18:56.682Z,14.20
2022-11-10T21:21:27.993Z,19.17
2022-11-10T21:23:57.443Z,16.77
2022-11-10T21:26:24.741Z,19.57
2022-11-10T21:28:51.764Z,16.17
2022-11-10T21:31:18.766Z,16.77
2022-11-10T21:33:45.689Z,17.87
2022-11-10T21:36:12.528Z,17.10
2022-11-10T21:38:39.386Z,16.30
2022-11-10T21:41:06.302Z,18.87
2022-11-10T21:43:33.151Z,19.90
2022-11-10T21:46:04.015Z,17.70
2022-11-10T21:48:30.876Z,14.20
2022-11-10T21:51:01.402Z,19.83
2022-11-10T21:53:28.576Z,14.90
2022-11-10T21:56:04.431Z,22.23
2022-11-10T21:58:33.512Z,19.17
2022-11-10T22:01:02.166Z,15.47
2022-11-10T22:03:29.918Z,18.87
2022-11-10T22:06:02.573Z,14.33
2022-11-10T22:08:29.429Z,15.67
2022-11-10T22:11:14.889Z,22.07
2022-11-10T22:14:00.426Z,20.67
2022-11-10T22:16:51.039Z,11.57
2022-11-10T22:19:18.305Z,19.40
2022-11-10T22:21:45.152Z,24.20
2022-11-10T22:24:24.690Z,16.83
2022-11-10T22:26:51.592Z,17.30
2022-11-10T22:29:18.474Z,18.17
2022-11-10T22:31:45.482Z,21.53
2022-11-10T22:34:12.316Z,19.93
2022-11-10T22:36:39.234Z,23.47
2022-11-10T22:39:06.600Z,20.83
2022-11-10T22:41:52.232Z,24.13
2022-11-10T22:44:23.775Z,18.93
2022-11-10T22:46:52.301Z,20.80
2022-11-10T22:49:22.918Z,19.00
2022-11-10T22:51:52.222Z,24.57
2022-11-10T22:54:20.889Z,21.20
2022-11-10T22:56:48.365Z,17.90
2022-11-10T22:59:15.819Z,22.67
2022-11-10T23:01:43.857Z,19.70
2022-11-10T23:04:11.456Z,20.90
2022-11-10T23:06:38.482Z,19.77
2022-11-10T23:09:06.051Z,15.40
2022-11-10T23:11:33.631Z,18.10
2022-11-10T23:14:00.580Z,18.43
2022-11-10T23:16:33.708Z,23.77
2022-11-10T23:19:01.139Z,19.27
2022-11-10T23:21:30.454Z,15.93
2022-11-10T23:23:57.620Z,15.53
2022-11-10T23:26:30.235Z,14.33
2022-11-10T23:28:57.208Z,26.50
2022-11-10T23:31:26.475Z,16.73
2022-11-10T23:33:55.880Z,18.63
2022-11-10T23:36:24.940Z,15.97
2022-11-10T23:38:52.433Z,15.33
2022-11-10T23:41:23.463Z,16.00
2022-11-10T23:43:50.606Z,18.13
2022-11-10T23:46:17.531Z,17.10
2022-11-10T23:48:44.555Z,14.40
2022-11-10T23:51:13.836Z,16.03
2022-11-10T23:53:40.889Z,11.93
2022-11-10T23:56:11.949Z,16.37
2022-11-10T23:58:38.816Z,11.00
